Ana Sayfa
METAR-TAF:

METAR-TAF

Havaalanları :

Saint-Denis, Réunion

Enlem: 20-53S, Boylam: 055-31E, yükseklik: 21 m

Güncel hava durumu gözlemi

Rapor saat 04:00 UTC de 38 dakika önce yapıldı.
Rüzgar doğu/güneydoğudan 11 kt
Sıcaklık 25°C
Nem 74%
Basınç 1017 hPa
Görüş mesafesi 10 km veya daha fazla
4800 ft yükseklikte parçalı çok bulutlu

METAR: FMEE 230400Z AUTO 12011KT 9999 BKN048 25/20 Q1017 NOSIG

Saat: 08:38 (04:38 UTC)

Tahmin

Rapor saat 23:00 UTC de 5 saat ve 38 dakika önce yapıldı.
Ayın 23'si saat 00 UTC'den ayın 24'si saat 06 UTC'ye kadar geçerli Tahmin
Rüzgar doğudan 10 kt
Görüş mesafesi 10 km veya daha fazla
2300 ft yükseklikte az bulutlu

TAF: FMEE 222300Z 2300/2406 10010KT 9999 FEW023

4.000'den fazla havaalanı için hava durumu gözlemleri ve tahminleri (METAR ve TAF raporları).

Kullanılabilir istasyonlar harita üzerinde sarı ve kırmızı noktalarla gösterilir.

İstasyonun adını görmek için fareyi noktanın üzerinde gezdirin.

Sonrasında hava gözlem ve tahminlerini görmek için tıklayın.

Haritayı değiştirmek için: yaklaştırmak için siyah artı işaretli yeşil düğmeye ve uzaklaştırmak için de eksi işaretli düğmeye hızla tıklayın; bitişik haritalar için yeşil okları kullanın.


METAR-TAF: